sensor_id;sensor_type;location;lat;lon;timestamp;P1;durP1;ratioP1;P2;durP2;ratioP2
5785;SDS011;2919;48.630;9.000;2022-11-04T00:01:36;2.10;;;1.00;;
5785;SDS011;2919;48.630;9.000;2022-11-04T00:04:03;1.30;;;0.60;;
5785;SDS011;2919;48.630;9.000;2022-11-04T00:06:29;2.50;;;0.80;;
5785;SDS011;2919;48.630;9.000;2022-11-04T00:08:55;1.40;;;0.77;;
5785;SDS011;2919;48.630;9.000;2022-11-04T00:11:22;4.13;;;1.00;;
5785;SDS011;2919;48.630;9.000;2022-11-04T00:14:08;1.83;;;1.07;;
5785;SDS011;2919;48.630;9.000;2022-11-04T00:16:34;1.33;;;0.70;;
5785;SDS011;2919;48.630;9.000;2022-11-04T00:19:19;3.00;;;0.70;;
5785;SDS011;2919;48.630;9.000;2022-11-04T00:21:44;1.50;;;0.67;;
5785;SDS011;2919;48.630;9.000;2022-11-04T00:24:28;4.07;;;1.00;;
5785;SDS011;2919;48.630;9.000;2022-11-04T00:27:07;1.40;;;0.70;;
5785;SDS011;2919;48.630;9.000;2022-11-04T00:29:51;1.60;;;0.83;;
5785;SDS011;2919;48.630;9.000;2022-11-04T00:32:17;2.40;;;0.80;;
5785;SDS011;2919;48.630;9.000;2022-11-04T00:35:01;6.00;;;1.43;;
5785;SDS011;2919;48.630;9.000;2022-11-04T00:37:26;1.57;;;0.90;;
5785;SDS011;2919;48.630;9.000;2022-11-04T00:39:52;2.00;;;0.90;;
5785;SDS011;2919;48.630;9.000;2022-11-04T00:42:17;2.60;;;0.90;;
5785;SDS011;2919;48.630;9.000;2022-11-04T00:44:43;1.90;;;0.80;;
5785;SDS011;2919;48.630;9.000;2022-11-04T00:47:08;1.40;;;0.60;;
5785;SDS011;2919;48.630;9.000;2022-11-04T00:49:34;2.50;;;1.03;;
5785;SDS011;2919;48.630;9.000;2022-11-04T00:51:59;1.90;;;0.93;;
5785;SDS011;2919;48.630;9.000;2022-11-04T00:54:25;1.30;;;0.57;;
5785;SDS011;2919;48.630;9.000;2022-11-04T00:56:51;3.30;;;0.90;;
5785;SDS011;2919;48.630;9.000;2022-11-04T00:59:17;2.27;;;0.83;;
5785;SDS011;2919;48.630;9.000;2022-11-04T01:01:43;1.50;;;0.73;;
5785;SDS011;2919;48.630;9.000;2022-11-04T01:04:09;2.23;;;1.00;;
5785;SDS011;2919;48.630;9.000;2022-11-04T01:06:34;1.60;;;0.60;;
5785;SDS011;2919;48.630;9.000;2022-11-04T01:09:01;2.10;;;0.80;;
5785;SDS011;2919;48.630;9.000;2022-11-04T01:11:29;1.40;;;0.80;;
5785;SDS011;2919;48.630;9.000;2022-11-04T01:13:55;1.33;;;0.70;;
5785;SDS011;2919;48.630;9.000;2022-11-04T01:16:22;1.27;;;0.60;;
5785;SDS011;2919;48.630;9.000;2022-11-04T01:18:48;1.30;;;0.60;;
5785;SDS011;2919;48.630;9.000;2022-11-04T01:21:14;2.23;;;1.10;;
5785;SDS011;2919;48.630;9.000;2022-11-04T01:23:41;1.60;;;0.83;;
5785;SDS011;2919;48.630;9.000;2022-11-04T01:26:14;2.30;;;1.00;;
5785;SDS011;2919;48.630;9.000;2022-11-04T01:28:42;1.40;;;0.60;;
5785;SDS011;2919;48.630;9.000;2022-11-04T01:31:12;2.07;;;0.60;;
5785;SDS011;2919;48.630;9.000;2022-11-04T01:33:39;3.47;;;1.17;;
5785;SDS011;2919;48.630;9.000;2022-11-04T01:36:06;1.50;;;0.70;;
5785;SDS011;2919;48.630;9.000;2022-11-04T01:38:33;1.50;;;0.67;;
5785;SDS011;2919;48.630;9.000;2022-11-04T01:40:59;2.23;;;0.73;;
5785;SDS011;2919;48.630;9.000;2022-11-04T01:46:09;3.00;;;0.80;;
5785;SDS011;2919;48.630;9.000;2022-11-04T01:48:45;1.40;;;0.60;;
5785;SDS011;2919;48.630;9.000;2022-11-04T01:51:11;2.60;;;0.90;;
5785;SDS011;2919;48.630;9.000;2022-11-04T01:53:38;1.97;;;0.90;;
5785;SDS011;2919;48.630;9.000;2022-11-04T01:56:06;1.77;;;0.80;;
5785;SDS011;2919;48.630;9.000;2022-11-04T01:58:36;1.50;;;0.77;;
5785;SDS011;2919;48.630;9.000;2022-11-04T02:01:07;1.40;;;0.70;;
5785;SDS011;2919;48.630;9.000;2022-11-04T02:03:40;1.30;;;0.60;;
5785;SDS011;2919;48.630;9.000;2022-11-04T02:06:15;13.30;;;0.80;;
5785;SDS011;2919;48.630;9.000;2022-11-04T02:08:43;1.20;;;0.50;;
5785;SDS011;2919;48.630;9.000;2022-11-04T02:11:10;1.20;;;0.53;;
5785;SDS011;2919;48.630;9.000;2022-11-04T02:13:55;1.20;;;0.60;;
5785;SDS011;2919;48.630;9.000;2022-11-04T02:16:28;1.20;;;0.50;;
5785;SDS011;2919;48.630;9.000;2022-11-04T02:24:40;1.40;;;0.60;;
5785;SDS011;2919;48.630;9.000;2022-11-04T02:30:13;1.50;;;0.90;;
5785;SDS011;2919;48.630;9.000;2022-11-04T02:35:35;2.57;;;0.70;;
5785;SDS011;2919;48.630;9.000;2022-11-04T02:48:46;1.40;;;0.60;;
5785;SDS011;2919;48.630;9.000;2022-11-04T02:51:25;2.47;;;0.90;;
5785;SDS011;2919;48.630;9.000;2022-11-04T02:56:27;1.20;;;0.57;;
5785;SDS011;2919;48.630;9.000;2022-11-04T02:58:56;1.73;;;0.60;;
5785;SDS011;2919;48.630;9.000;2022-11-04T03:01:26;10.10;;;1.03;;
5785;SDS011;2919;48.630;9.000;2022-11-04T03:03:59;1.30;;;0.60;;
5785;SDS011;2919;48.630;9.000;2022-11-04T03:06:30;2.07;;;0.70;;
5785;SDS011;2919;48.630;9.000;2022-11-04T03:08:57;1.97;;;0.77;;
5785;SDS011;2919;48.630;9.000;2022-11-04T03:11:24;1.67;;;0.57;;
5785;SDS011;2919;48.630;9.000;2022-11-04T03:13:58;3.83;;;0.93;;
5785;SDS011;2919;48.630;9.000;2022-11-04T03:21:49;2.90;;;0.80;;
5785;SDS011;2919;48.630;9.000;2022-11-04T03:24:29;1.60;;;0.50;;
5785;SDS011;2919;48.630;9.000;2022-11-04T03:27:03;1.30;;;0.53;;
5785;SDS011;2919;48.630;9.000;2022-11-04T03:29:40;1.60;;;0.60;;
5785;SDS011;2919;48.630;9.000;2022-11-04T03:34:49;1.20;;;0.63;;
5785;SDS011;2919;48.630;9.000;2022-11-04T03:37:15;1.60;;;0.60;;
5785;SDS011;2919;48.630;9.000;2022-11-04T03:39:41;1.83;;;0.70;;
5785;SDS011;2919;48.630;9.000;2022-11-04T03:42:08;5.97;;;0.90;;
5785;SDS011;2919;48.630;9.000;2022-11-04T03:44:46;1.20;;;0.50;;
5785;SDS011;2919;48.630;9.000;2022-11-04T03:47:14;6.30;;;0.67;;
5785;SDS011;2919;48.630;9.000;2022-11-04T03:49:41;4.77;;;1.23;;
5785;SDS011;2919;48.630;9.000;2022-11-04T03:52:07;2.07;;;0.93;;
5785;SDS011;2919;48.630;9.000;2022-11-04T03:54:33;1.50;;;0.80;;
5785;SDS011;2919;48.630;9.000;2022-11-04T04:07:40;2.53;;;0.60;;
5785;SDS011;2919;48.630;9.000;2022-11-04T04:13:01;1.43;;;0.60;;
5785;SDS011;2919;48.630;9.000;2022-11-04T04:15:48;1.37;;;0.70;;
5785;SDS011;2919;48.630;9.000;2022-11-04T04:18:36;1.40;;;0.60;;
5785;SDS011;2919;48.630;9.000;2022-11-04T04:21:16;2.03;;;0.60;;
5785;SDS011;2919;48.630;9.000;2022-11-04T04:23:45;8.53;;;1.13;;
5785;SDS011;2919;48.630;9.000;2022-11-04T04:26:32;3.50;;;1.00;;
5785;SDS011;2919;48.630;9.000;2022-11-04T04:29:17;2.67;;;0.83;;
5785;SDS011;2919;48.630;9.000;2022-11-04T04:31:44;1.20;;;0.50;;
5785;SDS011;2919;48.630;9.000;2022-11-04T04:34:29;1.47;;;0.77;;
5785;SDS011;2919;48.630;9.000;2022-11-04T04:39:34;2.27;;;1.00;;
5785;SDS011;2919;48.630;9.000;2022-11-04T04:42:25;1.60;;;0.60;;
5785;SDS011;2919;48.630;9.000;2022-11-04T04:45:18;2.50;;;0.70;;
5785;SDS011;2919;48.630;9.000;2022-11-04T04:47:49;1.40;;;0.50;;
5785;SDS011;2919;48.630;9.000;2022-11-04T04:50:16;2.37;;;0.83;;
5785;SDS011;2919;48.630;9.000;2022-11-04T04:52:44;2.03;;;0.80;;
5785;SDS011;2919;48.630;9.000;2022-11-04T04:55:12;1.57;;;0.67;;
5785;SDS011;2919;48.630;9.000;2022-11-04T04:57:38;1.70;;;0.60;;
5785;SDS011;2919;48.630;9.000;2022-11-04T05:00:05;1.93;;;0.70;;
5785;SDS011;2919;48.630;9.000;2022-11-04T05:02:32;12.53;;;1.07;;
5785;SDS011;2919;48.630;9.000;2022-11-04T05:04:58;2.13;;;0.80;;
5785;SDS011;2919;48.630;9.000;2022-11-04T05:07:24;2.03;;;1.20;;
5785;SDS011;2919;48.630;9.000;2022-11-04T05:09:49;1.40;;;0.63;;
5785;SDS011;2919;48.630;9.000;2022-11-04T05:12:15;3.43;;;0.67;;
5785;SDS011;2919;48.630;9.000;2022-11-04T05:14:41;3.03;;;0.80;;
5785;SDS011;2919;48.630;9.000;2022-11-04T05:17:06;2.00;;;0.80;;
5785;SDS011;2919;48.630;9.000;2022-11-04T05:19:32;2.07;;;0.90;;
5785;SDS011;2919;48.630;9.000;2022-11-04T05:21:58;4.30;;;1.37;;
5785;SDS011;2919;48.630;9.000;2022-11-04T05:24:23;2.00;;;1.20;;
5785;SDS011;2919;48.630;9.000;2022-11-04T05:26:49;1.73;;;0.83;;
5785;SDS011;2919;48.630;9.000;2022-11-04T05:29:15;1.20;;;0.60;;
5785;SDS011;2919;48.630;9.000;2022-11-04T05:31:40;5.60;;;0.97;;
5785;SDS011;2919;48.630;9.000;2022-11-04T05:34:08;4.30;;;0.60;;
5785;SDS011;2919;48.630;9.000;2022-11-04T05:36:34;3.17;;;0.93;;
5785;SDS011;2919;48.630;9.000;2022-11-04T05:39:01;1.33;;;0.70;;
5785;SDS011;2919;48.630;9.000;2022-11-04T05:41:27;1.20;;;0.60;;
5785;SDS011;2919;48.630;9.000;2022-11-04T05:43:57;2.03;;;0.87;;
5785;SDS011;2919;48.630;9.000;2022-11-04T05:46:24;2.10;;;1.03;;
5785;SDS011;2919;48.630;9.000;2022-11-04T05:48:50;1.40;;;0.60;;
5785;SDS011;2919;48.630;9.000;2022-11-04T05:51:17;12.60;;;1.13;;
5785;SDS011;2919;48.630;9.000;2022-11-04T05:53:44;1.23;;;0.60;;
5785;SDS011;2919;48.630;9.000;2022-11-04T05:56:10;1.70;;;0.80;;
5785;SDS011;2919;48.630;9.000;2022-11-04T05:58:36;1.20;;;0.50;;
5785;SDS011;2919;48.630;9.000;2022-11-04T06:03:57;1.30;;;0.60;;
5785;SDS011;2919;48.630;9.000;2022-11-04T06:06:25;1.20;;;0.60;;
5785;SDS011;2919;48.630;9.000;2022-11-04T06:08:52;1.50;;;0.80;;
5785;SDS011;2919;48.630;9.000;2022-11-04T06:11:18;1.80;;;0.70;;
5785;SDS011;2919;48.630;9.000;2022-11-04T06:13:44;2.50;;;0.60;;
5785;SDS011;2919;48.630;9.000;2022-11-04T06:16:10;1.13;;;0.50;;
5785;SDS011;2919;48.630;9.000;2022-11-04T06:18:36;1.40;;;0.50;;
5785;SDS011;2919;48.630;9.000;2022-11-04T06:23:42;1.20;;;0.60;;
5785;SDS011;2919;48.630;9.000;2022-11-04T06:26:09;1.20;;;0.50;;
5785;SDS011;2919;48.630;9.000;2022-11-04T06:28:35;1.40;;;0.67;;
5785;SDS011;2919;48.630;9.000;2022-11-04T06:31:02;1.27;;;0.60;;
5785;SDS011;2919;48.630;9.000;2022-11-04T06:33:29;1.40;;;0.70;;
5785;SDS011;2919;48.630;9.000;2022-11-04T06:35:56;1.50;;;0.73;;
5785;SDS011;2919;48.630;9.000;2022-11-04T06:38:22;1.20;;;0.50;;
5785;SDS011;2919;48.630;9.000;2022-11-04T06:40:48;2.60;;;0.70;;
5785;SDS011;2919;48.630;9.000;2022-11-04T06:43:13;2.03;;;0.60;;
5785;SDS011;2919;48.630;9.000;2022-11-04T06:45:39;1.83;;;0.70;;
5785;SDS011;2919;48.630;9.000;2022-11-04T06:48:05;1.27;;;0.70;;
5785;SDS011;2919;48.630;9.000;2022-11-04T06:50:30;2.07;;;1.00;;
5785;SDS011;2919;48.630;9.000;2022-11-04T06:52:56;1.20;;;0.60;;
5785;SDS011;2919;48.630;9.000;2022-11-04T06:55:21;1.50;;;0.60;;
5785;SDS011;2919;48.630;9.000;2022-11-04T06:57:47;2.17;;;0.60;;
5785;SDS011;2919;48.630;9.000;2022-11-04T07:00:13;1.40;;;0.80;;
5785;SDS011;2919;48.630;9.000;2022-11-04T07:02:39;1.20;;;0.50;;
5785;SDS011;2919;48.630;9.000;2022-11-04T07:05:04;1.63;;;0.70;;
5785;SDS011;2919;48.630;9.000;2022-11-04T07:07:31;1.40;;;0.60;;
5785;SDS011;2919;48.630;9.000;2022-11-04T07:09:57;2.07;;;1.00;;
5785;SDS011;2919;48.630;9.000;2022-11-04T07:12:22;2.57;;;1.20;;
5785;SDS011;2919;48.630;9.000;2022-11-04T07:14:48;1.40;;;0.70;;
5785;SDS011;2919;48.630;9.000;2022-11-04T07:17:19;2.00;;;0.80;;
5785;SDS011;2919;48.630;9.000;2022-11-04T07:19:45;2.07;;;0.83;;
5785;SDS011;2919;48.630;9.000;2022-11-04T07:22:10;8.70;;;0.87;;
5785;SDS011;2919;48.630;9.000;2022-11-04T07:24:36;1.97;;;1.10;;
5785;SDS011;2919;48.630;9.000;2022-11-04T07:27:01;3.30;;;1.03;;
5785;SDS011;2919;48.630;9.000;2022-11-04T07:29:27;1.93;;;0.90;;
5785;SDS011;2919;48.630;9.000;2022-11-04T07:31:53;2.70;;;1.20;;
5785;SDS011;2919;48.630;9.000;2022-11-04T07:34:18;2.23;;;0.90;;
5785;SDS011;2919;48.630;9.000;2022-11-04T07:36:44;25.13;;;1.17;;
5785;SDS011;2919;48.630;9.000;2022-11-04T07:39:09;1.43;;;0.77;;
5785;SDS011;2919;48.630;9.000;2022-11-04T07:41:35;2.47;;;1.30;;
5785;SDS011;2919;48.630;9.000;2022-11-04T07:44:01;4.80;;;1.00;;
5785;SDS011;2919;48.630;9.000;2022-11-04T07:46:29;1.70;;;0.70;;
5785;SDS011;2919;48.630;9.000;2022-11-04T07:48:58;1.20;;;0.60;;
5785;SDS011;2919;48.630;9.000;2022-11-04T07:51:24;1.30;;;0.60;;
5785;SDS011;2919;48.630;9.000;2022-11-04T07:53:51;2.50;;;0.70;;
5785;SDS011;2919;48.630;9.000;2022-11-04T07:56:16;1.83;;;0.70;;
5785;SDS011;2919;48.630;9.000;2022-11-04T07:58:43;1.40;;;0.60;;
5785;SDS011;2919;48.630;9.000;2022-11-04T08:01:10;1.57;;;0.93;;
5785;SDS011;2919;48.630;9.000;2022-11-04T08:03:38;2.27;;;0.90;;
5785;SDS011;2919;48.630;9.000;2022-11-04T08:06:04;1.47;;;0.60;;
5785;SDS011;2919;48.630;9.000;2022-11-04T08:08:31;2.97;;;0.87;;
5785;SDS011;2919;48.630;9.000;2022-11-04T08:10:58;4.60;;;1.27;;
5785;SDS011;2919;48.630;9.000;2022-11-04T08:13:26;3.40;;;1.27;;
5785;SDS011;2919;48.630;9.000;2022-11-04T08:15:53;1.80;;;1.00;;
5785;SDS011;2919;48.630;9.000;2022-11-04T08:18:20;4.00;;;1.07;;
5785;SDS011;2919;48.630;9.000;2022-11-04T08:20:46;3.83;;;1.53;;
5785;SDS011;2919;48.630;9.000;2022-11-04T08:23:14;4.57;;;2.27;;
5785;SDS011;2919;48.630;9.000;2022-11-04T08:25:40;8.57;;;2.03;;
5785;SDS011;2919;48.630;9.000;2022-11-04T08:28:05;3.00;;;1.37;;
5785;SDS011;2919;48.630;9.000;2022-11-04T08:30:31;3.30;;;1.13;;
5785;SDS011;2919;48.630;9.000;2022-11-04T08:32:57;4.80;;;1.83;;
5785;SDS011;2919;48.630;9.000;2022-11-04T08:35:23;2.20;;;0.87;;
5785;SDS011;2919;48.630;9.000;2022-11-04T08:37:49;2.60;;;1.10;;
5785;SDS011;2919;48.630;9.000;2022-11-04T08:40:15;2.23;;;0.70;;
5785;SDS011;2919;48.630;9.000;2022-11-04T08:42:41;2.70;;;0.87;;
5785;SDS011;2919;48.630;9.000;2022-11-04T08:45:06;2.17;;;1.00;;
5785;SDS011;2919;48.630;9.000;2022-11-04T08:47:32;2.80;;;0.97;;
5785;SDS011;2919;48.630;9.000;2022-11-04T08:49:58;3.10;;;1.70;;
5785;SDS011;2919;48.630;9.000;2022-11-04T08:52:23;8.43;;;1.40;;
5785;SDS011;2919;48.630;9.000;2022-11-04T08:54:52;2.03;;;0.90;;
5785;SDS011;2919;48.630;9.000;2022-11-04T08:57:19;4.30;;;1.40;;
5785;SDS011;2919;48.630;9.000;2022-11-04T08:59:44;2.37;;;0.60;;
5785;SDS011;2919;48.630;9.000;2022-11-04T09:02:13;1.40;;;0.60;;
5785;SDS011;2919;48.630;9.000;2022-11-04T09:04:41;1.20;;;0.53;;
5785;SDS011;2919;48.630;9.000;2022-11-04T09:07:07;2.67;;;0.80;;
5785;SDS011;2919;48.630;9.000;2022-11-04T09:09:33;2.73;;;0.60;;
5785;SDS011;2919;48.630;9.000;2022-11-04T09:11:58;1.70;;;0.80;;
5785;SDS011;2919;48.630;9.000;2022-11-04T09:14:24;1.60;;;0.60;;
5785;SDS011;2919;48.630;9.000;2022-11-04T09:16:50;1.30;;;0.60;;
5785;SDS011;2919;48.630;9.000;2022-11-04T09:19:15;1.50;;;0.70;;
5785;SDS011;2919;48.630;9.000;2022-11-04T09:21:41;2.33;;;0.80;;
5785;SDS011;2919;48.630;9.000;2022-11-04T09:24:06;4.00;;;1.30;;
5785;SDS011;2919;48.630;9.000;2022-11-04T09:26:33;1.87;;;0.70;;
5785;SDS011;2919;48.630;9.000;2022-11-04T09:28:58;2.07;;;0.67;;
5785;SDS011;2919;48.630;9.000;2022-11-04T09:31:25;2.77;;;0.67;;
5785;SDS011;2919;48.630;9.000;2022-11-04T09:33:53;1.50;;;0.67;;
5785;SDS011;2919;48.630;9.000;2022-11-04T09:36:19;1.53;;;0.73;;
5785;SDS011;2919;48.630;9.000;2022-11-04T09:38:45;1.20;;;0.50;;
5785;SDS011;2919;48.630;9.000;2022-11-04T09:44:13;2.10;;;0.90;;
5785;SDS011;2919;48.630;9.000;2022-11-04T09:46:52;1.30;;;0.70;;
5785;SDS011;2919;48.630;9.000;2022-11-04T09:49:22;4.13;;;0.80;;
5785;SDS011;2919;48.630;9.000;2022-11-04T09:51:51;3.83;;;0.73;;
5785;SDS011;2919;48.630;9.000;2022-11-04T09:54:35;1.73;;;0.70;;
5785;SDS011;2919;48.630;9.000;2022-11-04T09:57:12;2.83;;;0.90;;
5785;SDS011;2919;48.630;9.000;2022-11-04T09:59:41;1.40;;;0.60;;
5785;SDS011;2919;48.630;9.000;2022-11-04T10:10:00;5.77;;;0.87;;
5785;SDS011;2919;48.630;9.000;2022-11-04T10:24:27;3.77;;;0.90;;
5785;SDS011;2919;48.630;9.000;2022-11-04T10:30:00;1.87;;;0.90;;
5785;SDS011;2919;48.630;9.000;2022-11-04T10:38:04;1.40;;;0.70;;
5785;SDS011;2919;48.630;9.000;2022-11-04T10:40:47;1.67;;;0.70;;
5785;SDS011;2919;48.630;9.000;2022-11-04T10:43:16;2.67;;;1.20;;
5785;SDS011;2919;48.630;9.000;2022-11-04T10:51:13;5.13;;;0.90;;
5785;SDS011;2919;48.630;9.000;2022-11-04T10:53:44;3.60;;;1.30;;
5785;SDS011;2919;48.630;9.000;2022-11-04T10:59:14;5.80;;;0.97;;
5785;SDS011;2919;48.630;9.000;2022-11-04T11:01:52;1.67;;;0.87;;
5785;SDS011;2919;48.630;9.000;2022-11-04T11:04:23;3.80;;;1.20;;
5785;SDS011;2919;48.630;9.000;2022-11-04T11:06:50;2.33;;;0.93;;
5785;SDS011;2919;48.630;9.000;2022-11-04T11:09:19;4.10;;;0.90;;
5785;SDS011;2919;48.630;9.000;2022-11-04T11:11:50;4.33;;;1.17;;
5785;SDS011;2919;48.630;9.000;2022-11-04T11:16:57;3.60;;;1.27;;
5785;SDS011;2919;48.630;9.000;2022-11-04T11:27:46;1.30;;;0.47;;
5785;SDS011;2919;48.630;9.000;2022-11-04T11:30:21;2.00;;;0.90;;
5785;SDS011;2919;48.630;9.000;2022-11-04T11:32:47;3.17;;;0.90;;
5785;SDS011;2919;48.630;9.000;2022-11-04T11:35:21;1.67;;;0.60;;
5785;SDS011;2919;48.630;9.000;2022-11-04T11:37:51;1.50;;;0.87;;
5785;SDS011;2919;48.630;9.000;2022-11-04T11:40:27;2.23;;;1.00;;
5785;SDS011;2919;48.630;9.000;2022-11-04T11:43:01;2.87;;;1.33;;
5785;SDS011;2919;48.630;9.000;2022-11-04T11:45:29;5.30;;;1.60;;
5785;SDS011;2919;48.630;9.000;2022-11-04T11:47:56;2.17;;;1.00;;
5785;SDS011;2919;48.630;9.000;2022-11-04T11:50:26;2.70;;;1.13;;
5785;SDS011;2919;48.630;9.000;2022-11-04T11:53:17;4.07;;;0.70;;
5785;SDS011;2919;48.630;9.000;2022-11-04T11:58:42;2.53;;;1.00;;
5785;SDS011;2919;48.630;9.000;2022-11-04T12:04:03;2.43;;;0.77;;
5785;SDS011;2919;48.630;9.000;2022-11-04T12:09:46;1.90;;;0.60;;
5785;SDS011;2919;48.630;9.000;2022-11-04T12:12:37;3.53;;;1.13;;
5785;SDS011;2919;48.630;9.000;2022-11-04T12:20:44;4.13;;;0.83;;
5785;SDS011;2919;48.630;9.000;2022-11-04T12:31:14;4.00;;;1.00;;
5785;SDS011;2919;48.630;9.000;2022-11-04T12:34:10;2.50;;;0.60;;
5785;SDS011;2919;48.630;9.000;2022-11-04T12:47:49;2.37;;;0.63;;
5785;SDS011;2919;48.630;9.000;2022-11-04T12:55:44;2.83;;;1.00;;
5785;SDS011;2919;48.630;9.000;2022-11-04T13:01:11;2.10;;;1.00;;
5785;SDS011;2919;48.630;9.000;2022-11-04T13:03:53;2.17;;;0.90;;
5785;SDS011;2919;48.630;9.000;2022-11-04T13:06:27;1.90;;;0.90;;
5785;SDS011;2919;48.630;9.000;2022-11-04T13:09:00;1.70;;;0.80;;
5785;SDS011;2919;48.630;9.000;2022-11-04T13:11:34;2.53;;;0.97;;
5785;SDS011;2919;48.630;9.000;2022-11-04T13:14:09;2.70;;;0.63;;
5785;SDS011;2919;48.630;9.000;2022-11-04T13:16:40;1.20;;;0.50;;
5785;SDS011;2919;48.630;9.000;2022-11-04T13:19:51;1.57;;;0.63;;
5785;SDS011;2919;48.630;9.000;2022-11-04T13:22:10;1.73;;;0.63;;
5785;SDS011;2919;48.630;9.000;2022-11-04T13:27:34;1.30;;;0.50;;
5785;SDS011;2919;48.630;9.000;2022-11-04T13:38:39;2.57;;;0.87;;
5785;SDS011;2919;48.630;9.000;2022-11-04T13:41:36;1.40;;;0.60;;
5785;SDS011;2919;48.630;9.000;2022-11-04T13:44:04;5.00;;;0.90;;
5785;SDS011;2919;48.630;9.000;2022-11-04T13:46:45;1.30;;;0.60;;
5785;SDS011;2919;48.630;9.000;2022-11-04T13:51:45;1.20;;;0.50;;
5785;SDS011;2919;48.630;9.000;2022-11-04T13:57:02;1.53;;;0.60;;
5785;SDS011;2919;48.630;9.000;2022-11-04T13:59:29;1.20;;;0.50;;
5785;SDS011;2919;48.630;9.000;2022-11-04T14:04:39;2.33;;;0.70;;
5785;SDS011;2919;48.630;9.000;2022-11-04T14:07:07;1.83;;;0.60;;
5785;SDS011;2919;48.630;9.000;2022-11-04T14:14:43;4.73;;;1.10;;
5785;SDS011;2919;48.630;9.000;2022-11-04T14:22:32;3.77;;;0.93;;
5785;SDS011;2919;48.630;9.000;2022-11-04T14:25:28;1.57;;;0.67;;
5785;SDS011;2919;48.630;9.000;2022-11-04T14:43:52;5.53;;;0.97;;
5785;SDS011;2919;48.630;9.000;2022-11-04T14:46:20;1.80;;;0.67;;
5785;SDS011;2919;48.630;9.000;2022-11-04T14:48:50;4.00;;;1.10;;
5785;SDS011;2919;48.630;9.000;2022-11-04T14:51:27;1.67;;;0.80;;
5785;SDS011;2919;48.630;9.000;2022-11-04T14:54:04;1.40;;;0.60;;
5785;SDS011;2919;48.630;9.000;2022-11-04T14:56:43;3.77;;;1.00;;
5785;SDS011;2919;48.630;9.000;2022-11-04T14:59:16;3.23;;;0.97;;
5785;SDS011;2919;48.630;9.000;2022-11-04T15:01:54;1.40;;;0.60;;
5785;SDS011;2919;48.630;9.000;2022-11-04T15:04:22;1.80;;;0.63;;
5785;SDS011;2919;48.630;9.000;2022-11-04T15:06:58;2.20;;;0.90;;
5785;SDS011;2919;48.630;9.000;2022-11-04T15:09:26;1.37;;;0.73;;
5785;SDS011;2919;48.630;9.000;2022-11-04T15:11:58;2.00;;;0.80;;
5785;SDS011;2919;48.630;9.000;2022-11-04T15:14:55;1.40;;;0.70;;
5785;SDS011;2919;48.630;9.000;2022-11-04T15:17:22;2.20;;;1.10;;
5785;SDS011;2919;48.630;9.000;2022-11-04T15:19:52;7.17;;;1.30;;
5785;SDS011;2919;48.630;9.000;2022-11-04T15:22:20;5.30;;;0.93;;
5785;SDS011;2919;48.630;9.000;2022-11-04T15:24:46;5.20;;;0.60;;
5785;SDS011;2919;48.630;9.000;2022-11-04T15:27:16;2.80;;;1.00;;
5785;SDS011;2919;48.630;9.000;2022-11-04T15:29:53;1.30;;;0.70;;
5785;SDS011;2919;48.630;9.000;2022-11-04T15:32:24;4.30;;;0.90;;
5785;SDS011;2919;48.630;9.000;2022-11-04T15:34:50;5.40;;;1.60;;
5785;SDS011;2919;48.630;9.000;2022-11-04T15:37:16;2.10;;;1.00;;
5785;SDS011;2919;48.630;9.000;2022-11-04T15:39:44;3.00;;;1.67;;
5785;SDS011;2919;48.630;9.000;2022-11-04T15:42:13;5.57;;;2.67;;
5785;SDS011;2919;48.630;9.000;2022-11-04T15:48:25;7.07;;;1.60;;
5785;SDS011;2919;48.630;9.000;2022-11-04T15:53:27;5.13;;;2.03;;
5785;SDS011;2919;48.630;9.000;2022-11-04T15:55:52;5.73;;;1.33;;
5785;SDS011;2919;48.630;9.000;2022-11-04T15:58:19;3.17;;;1.40;;
5785;SDS011;2919;48.630;9.000;2022-11-04T16:00:51;6.80;;;1.20;;
5785;SDS011;2919;48.630;9.000;2022-11-04T16:03:18;3.93;;;1.00;;
5785;SDS011;2919;48.630;9.000;2022-11-04T16:05:59;3.10;;;1.10;;
5785;SDS011;2919;48.630;9.000;2022-11-04T16:08:28;2.00;;;0.90;;
5785;SDS011;2919;48.630;9.000;2022-11-04T16:13:43;8.00;;;1.50;;
5785;SDS011;2919;48.630;9.000;2022-11-04T16:18:47;1.87;;;1.00;;
5785;SDS011;2919;48.630;9.000;2022-11-04T16:23:59;1.83;;;1.00;;
5785;SDS011;2919;48.630;9.000;2022-11-04T16:26:46;3.07;;;0.77;;
5785;SDS011;2919;48.630;9.000;2022-11-04T16:29:20;1.53;;;0.73;;
5785;SDS011;2919;48.630;9.000;2022-11-04T16:32:11;4.37;;;1.70;;
5785;SDS011;2919;48.630;9.000;2022-11-04T16:34:41;5.17;;;1.47;;
5785;SDS011;2919;48.630;9.000;2022-11-04T16:37:08;2.30;;;0.90;;
5785;SDS011;2919;48.630;9.000;2022-11-04T16:39:34;1.77;;;0.90;;
5785;SDS011;2919;48.630;9.000;2022-11-04T16:42:00;4.90;;;2.30;;
5785;SDS011;2919;48.630;9.000;2022-11-04T16:44:26;40.00;;;14.20;;
5785;SDS011;2919;48.630;9.000;2022-11-04T16:46:52;80.17;;;27.20;;
5785;SDS011;2919;48.630;9.000;2022-11-04T16:49:19;33.57;;;14.80;;
5785;SDS011;2919;48.630;9.000;2022-11-04T16:51:49;12.23;;;7.43;;
5785;SDS011;2919;48.630;9.000;2022-11-04T16:54:19;15.23;;;7.20;;
5785;SDS011;2919;48.630;9.000;2022-11-04T16:56:44;20.20;;;6.77;;
5785;SDS011;2919;48.630;9.000;2022-11-04T16:59:10;19.37;;;7.10;;
5785;SDS011;2919;48.630;9.000;2022-11-04T17:01:36;8.70;;;4.23;;
5785;SDS011;2919;48.630;9.000;2022-11-04T17:04:04;12.93;;;4.50;;
5785;SDS011;2919;48.630;9.000;2022-11-04T17:06:31;6.20;;;1.70;;
5785;SDS011;2919;48.630;9.000;2022-11-04T17:08:57;2.43;;;1.60;;
5785;SDS011;2919;48.630;9.000;2022-11-04T17:11:23;6.93;;;1.90;;
5785;SDS011;2919;48.630;9.000;2022-11-04T17:13:48;4.10;;;1.73;;
5785;SDS011;2919;48.630;9.000;2022-11-04T17:16:14;7.87;;;2.17;;
5785;SDS011;2919;48.630;9.000;2022-11-04T17:18:39;6.90;;;2.23;;
5785;SDS011;2919;48.630;9.000;2022-11-04T17:21:06;3.33;;;1.60;;
5785;SDS011;2919;48.630;9.000;2022-11-04T17:23:33;2.80;;;1.50;;
5785;SDS011;2919;48.630;9.000;2022-11-04T17:25:59;3.27;;;1.63;;
5785;SDS011;2919;48.630;9.000;2022-11-04T17:28:25;11.60;;;2.20;;
5785;SDS011;2919;48.630;9.000;2022-11-04T17:30:51;4.63;;;1.93;;
5785;SDS011;2919;48.630;9.000;2022-11-04T17:33:17;6.20;;;2.80;;
5785;SDS011;2919;48.630;9.000;2022-11-04T17:35:44;4.73;;;3.17;;
5785;SDS011;2919;48.630;9.000;2022-11-04T17:38:14;6.00;;;2.20;;
5785;SDS011;2919;48.630;9.000;2022-11-04T17:40:41;5.20;;;2.20;;
5785;SDS011;2919;48.630;9.000;2022-11-04T17:43:25;3.50;;;1.53;;
5785;SDS011;2919;48.630;9.000;2022-11-04T17:46:09;7.80;;;2.13;;
5785;SDS011;2919;48.630;9.000;2022-11-04T17:49:02;3.20;;;1.67;;
5785;SDS011;2919;48.630;9.000;2022-11-04T17:51:28;6.83;;;1.80;;
5785;SDS011;2919;48.630;9.000;2022-11-04T17:53:55;7.70;;;2.60;;
5785;SDS011;2919;48.630;9.000;2022-11-04T17:56:21;3.73;;;2.00;;
5785;SDS011;2919;48.630;9.000;2022-11-04T17:58:48;4.80;;;2.07;;
5785;SDS011;2919;48.630;9.000;2022-11-04T18:01:14;10.17;;;3.00;;
5785;SDS011;2919;48.630;9.000;2022-11-04T18:03:41;5.10;;;3.10;;
5785;SDS011;2919;48.630;9.000;2022-11-04T18:06:08;5.23;;;2.00;;
5785;SDS011;2919;48.630;9.000;2022-11-04T18:08:34;5.90;;;2.40;;
5785;SDS011;2919;48.630;9.000;2022-11-04T18:11:01;7.30;;;2.23;;
5785;SDS011;2919;48.630;9.000;2022-11-04T18:13:29;10.50;;;4.37;;
5785;SDS011;2919;48.630;9.000;2022-11-04T18:15:54;7.43;;;3.77;;
5785;SDS011;2919;48.630;9.000;2022-11-04T18:18:20;4.47;;;1.93;;
5785;SDS011;2919;48.630;9.000;2022-11-04T18:20:46;5.53;;;2.20;;
5785;SDS011;2919;48.630;9.000;2022-11-04T18:23:11;5.30;;;2.97;;
5785;SDS011;2919;48.630;9.000;2022-11-04T18:25:38;8.33;;;4.90;;
5785;SDS011;2919;48.630;9.000;2022-11-04T18:28:04;16.57;;;6.10;;
5785;SDS011;2919;48.630;9.000;2022-11-04T18:30:30;11.93;;;4.73;;
5785;SDS011;2919;48.630;9.000;2022-11-04T18:32:55;4.23;;;2.43;;
5785;SDS011;2919;48.630;9.000;2022-11-04T18:35:21;4.23;;;2.20;;
5785;SDS011;2919;48.630;9.000;2022-11-04T18:37:47;2.47;;;0.97;;
5785;SDS011;2919;48.630;9.000;2022-11-04T18:40:12;6.37;;;1.70;;
5785;SDS011;2919;48.630;9.000;2022-11-04T18:42:39;1.60;;;0.83;;
5785;SDS011;2919;48.630;9.000;2022-11-04T18:45:04;7.03;;;1.23;;
5785;SDS011;2919;48.630;9.000;2022-11-04T18:47:31;2.57;;;1.40;;
5785;SDS011;2919;48.630;9.000;2022-11-04T18:49:57;9.60;;;1.50;;
5785;SDS011;2919;48.630;9.000;2022-11-04T18:52:23;4.30;;;2.17;;
5785;SDS011;2919;48.630;9.000;2022-11-04T18:54:48;2.67;;;1.30;;
5785;SDS011;2919;48.630;9.000;2022-11-04T18:57:14;4.03;;;1.83;;
5785;SDS011;2919;48.630;9.000;2022-11-04T18:59:40;3.67;;;2.23;;